createdAt,value
2023-05-10T00:01:06.047Z,85.52
2023-05-10T00:03:32.775Z,83.46
2023-05-10T00:05:59.278Z,82.17
2023-05-10T00:08:26.227Z,84.45
2023-05-10T00:10:53.816Z,83.56
2023-05-10T00:13:20.394Z,85.42
2023-05-10T00:15:46.962Z,85.63
2023-05-10T00:18:13.609Z,87.80
2023-05-10T00:20:40.488Z,85.96
2023-05-10T00:23:07.021Z,86.12
2023-05-10T00:25:33.650Z,86.87
2023-05-10T00:28:00.151Z,86.29
2023-05-10T00:30:26.714Z,87.32
2023-05-10T00:32:53.229Z,87.19
2023-05-10T00:35:19.905Z,88.25
2023-05-10T00:37:46.474Z,90.99
2023-05-10T00:40:13.132Z,90.51
2023-05-10T00:42:39.863Z,91.53
2023-05-10T00:45:07.145Z,91.57
2023-05-10T00:47:33.904Z,88.88
2023-05-10T00:50:00.979Z,88.22
2023-05-10T00:52:29.145Z,87.36
2023-05-10T00:54:55.697Z,86.38
2023-05-10T00:57:25.623Z,88.25
2023-05-10T00:59:52.568Z,87.72
2023-05-10T01:02:22.741Z,88.52
2023-05-10T01:04:50.005Z,89.28
2023-05-10T01:07:16.634Z,87.78
2023-05-10T01:09:43.162Z,88.85
2023-05-10T01:12:09.701Z,88.39
2023-05-10T01:14:36.641Z,88.25
2023-05-10T01:17:03.356Z,87.97
2023-05-10T01:19:31.462Z,87.10
2023-05-10T01:22:10.066Z,88.82
2023-05-10T01:25:09.413Z,87.48
2023-05-10T01:28:06.346Z,89.89
2023-05-10T01:31:05.095Z,90.04
2023-05-10T01:33:44.907Z,90.41
2023-05-10T01:36:21.898Z,89.06
2023-05-10T01:38:54.798Z,89.35
2023-05-10T01:41:31.367Z,91.65
2023-05-10T01:44:07.471Z,91.51
2023-05-10T01:46:40.813Z,92.31
2023-05-10T01:49:14.848Z,92.48
2023-05-10T01:51:50.340Z,92.13
2023-05-10T01:54:18.887Z,91.70
2023-05-10T01:56:48.875Z,92.04
2023-05-10T01:59:18.083Z,90.93
2023-05-10T02:01:45.947Z,92.46
2023-05-10T02:04:15.707Z,91.94
2023-05-10T02:06:43.685Z,92.87
2023-05-10T02:09:12.907Z,91.69
2023-05-10T02:11:40.413Z,91.26
2023-05-10T02:14:09.011Z,91.29
2023-05-10T02:16:36.449Z,91.04
2023-05-10T02:19:03.404Z,89.48
2023-05-10T02:21:30.932Z,89.91
2023-05-10T02:23:58.220Z,88.93
2023-05-10T02:26:25.348Z,86.61
2023-05-10T02:28:52.949Z,87.65
2023-05-10T02:31:22.890Z,86.38
2023-05-10T02:33:50.068Z,87.33
2023-05-10T02:36:17.465Z,89.15
2023-05-10T02:38:45.535Z,88.32
2023-05-10T02:41:12.370Z,89.23
2023-05-10T02:43:41.225Z,87.97
2023-05-10T02:46:07.782Z,88.07
2023-05-10T02:48:34.922Z,87.23
2023-05-10T02:51:05.972Z,86.62
2023-05-10T02:53:33.295Z,85.56
2023-05-10T02:56:02.504Z,87.12
2023-05-10T02:58:33.815Z,87.57
2023-05-10T03:01:01.265Z,87.74
2023-05-10T03:03:28.037Z,89.53
2023-05-10T03:05:54.637Z,89.10
2023-05-10T03:08:21.243Z,91.00
2023-05-10T03:11:52.807Z,90.73
2023-05-10T03:14:40.611Z,90.65
2023-05-10T03:17:17.130Z,91.88
2023-05-10T03:19:49.678Z,92.52
2023-05-10T03:22:24.608Z,91.72
2023-05-10T03:24:53.610Z,92.70
2023-05-10T03:27:21.260Z,90.61
2023-05-10T03:29:47.846Z,88.23
2023-05-10T03:32:14.571Z,86.71
2023-05-10T03:34:44.160Z,87.09
2023-05-10T03:37:11.035Z,87.21
2023-05-10T03:39:37.670Z,85.76
2023-05-10T03:42:04.272Z,85.07
2023-05-10T03:44:30.799Z,84.37
2023-05-10T03:46:57.459Z,83.60
2023-05-10T03:49:24.063Z,86.97
2023-05-10T03:51:50.583Z,87.29
2023-05-10T03:54:17.182Z,91.00
2023-05-10T03:56:44.048Z,89.99
2023-05-10T03:59:10.710Z,90.94
2023-05-10T04:01:37.333Z,90.87
2023-05-10T04:04:04.067Z,92.13
2023-05-10T04:06:30.606Z,92.33
2023-05-10T04:08:57.206Z,91.79
2023-05-10T04:11:23.974Z,92.89
2023-05-10T04:13:50.447Z,92.35
2023-05-10T04:16:17.002Z,93.22
2023-05-10T04:18:43.490Z,93.83
2023-05-10T04:21:13.750Z,93.59
2023-05-10T04:23:40.954Z,94.67
2023-05-10T04:26:07.616Z,92.92
2023-05-10T04:28:34.146Z,92.88
2023-05-10T04:31:08.715Z,91.21
2023-05-10T04:33:35.791Z,92.30
2023-05-10T04:36:03.039Z,91.45
2023-05-10T04:38:29.748Z,91.96
2023-05-10T04:41:08.402Z,90.24
2023-05-10T04:43:35.275Z,91.27
2023-05-10T04:46:02.066Z,89.40
2023-05-10T04:48:28.990Z,89.35
2023-05-10T04:50:55.467Z,87.74
2023-05-10T04:53:22.022Z,87.33
2023-05-10T04:55:48.527Z,87.27
2023-05-10T04:58:15.147Z,86.59
2023-05-10T05:00:41.647Z,85.23
2023-05-10T05:03:08.296Z,84.96
2023-05-10T05:05:34.879Z,84.69
2023-05-10T05:08:01.487Z,83.23
2023-05-10T05:10:29.317Z,80.24
2023-05-10T05:12:55.950Z,79.34
2023-05-10T05:15:22.589Z,79.54
2023-05-10T05:17:49.334Z,79.50
2023-05-10T05:20:16.263Z,80.34
2023-05-10T05:22:42.982Z,78.40
2023-05-10T05:25:09.878Z,76.88
2023-05-10T05:27:36.557Z,77.47
2023-05-10T05:30:03.276Z,76.32
2023-05-10T05:32:29.765Z,76.38
2023-05-10T05:34:56.361Z,76.88
2023-05-10T05:37:22.965Z,77.50
2023-05-10T05:39:49.900Z,76.70
2023-05-10T05:42:16.472Z,77.24
2023-05-10T05:44:43.112Z,78.91
2023-05-10T05:47:09.790Z,78.08
2023-05-10T05:49:36.280Z,78.46
2023-05-10T05:52:04.222Z,77.15
2023-05-10T05:54:31.321Z,75.71
2023-05-10T05:57:00.446Z,77.43
2023-05-10T05:59:27.891Z,75.27
2023-05-10T06:01:54.427Z,74.73
2023-05-10T06:04:21.083Z,74.69
2023-05-10T06:06:47.608Z,73.98
2023-05-10T06:09:14.155Z,75.19
2023-05-10T06:11:42.093Z,76.17
2023-05-10T06:14:08.554Z,74.79
2023-05-10T06:16:35.546Z,74.12
2023-05-10T06:19:03.000Z,71.96
2023-05-10T06:21:29.498Z,70.75
2023-05-10T06:23:56.185Z,69.90
2023-05-10T06:26:22.708Z,69.55
2023-05-10T06:28:49.262Z,68.84
2023-05-10T06:31:15.874Z,69.90
2023-05-10T06:33:42.546Z,69.87
2023-05-10T06:36:09.039Z,67.33
2023-05-10T06:38:35.768Z,67.11
2023-05-10T06:41:02.257Z,62.95
2023-05-10T06:43:28.798Z,57.53
2023-05-10T06:45:55.832Z,53.71
2023-05-10T06:48:24.175Z,47.92
2023-05-10T06:50:50.915Z,44.71
2023-05-10T06:53:17.494Z,41.56
2023-05-10T06:55:44.193Z,41.82
2023-05-10T06:58:11.786Z,40.68
2023-05-10T07:00:38.419Z,40.99
2023-05-10T07:03:04.952Z,37.17
2023-05-10T07:05:31.577Z,39.88
2023-05-10T07:08:01.226Z,41.79
2023-05-10T07:10:27.815Z,45.13
2023-05-10T07:12:54.602Z,48.22
2023-05-10T07:15:21.338Z,48.79
2023-05-10T07:17:47.882Z,52.30
2023-05-10T07:20:14.855Z,51.13
2023-05-10T07:22:41.435Z,52.91
2023-05-10T07:25:08.356Z,53.60
2023-05-10T07:27:34.936Z,51.13
2023-05-10T07:30:01.431Z,55.54
2023-05-10T07:32:28.067Z,56.20
2023-05-10T07:34:54.866Z,57.50
2023-05-10T07:37:21.388Z,57.47
2023-05-10T07:39:48.003Z,56.83
2023-05-10T07:42:14.497Z,56.22
2023-05-10T07:44:40.996Z,57.16
2023-05-10T07:47:07.551Z,54.37
2023-05-10T07:49:34.711Z,56.75
2023-05-10T07:52:01.208Z,55.42
2023-05-10T07:54:30.530Z,53.38
2023-05-10T07:56:57.096Z,54.83
2023-05-10T07:59:23.598Z,55.27
2023-05-10T08:01:50.141Z,53.96
2023-05-10T08:04:16.700Z,53.71
2023-05-10T08:06:43.318Z,52.63
2023-05-10T08:09:10.215Z,51.88
2023-05-10T08:11:36.661Z,52.04
2023-05-10T08:14:03.701Z,53.04
2023-05-10T08:16:30.763Z,52.65
2023-05-10T08:18:57.623Z,51.59
2023-05-10T08:21:24.188Z,53.03
2023-05-10T08:23:50.723Z,55.00
2023-05-10T08:26:17.220Z,54.73
2023-05-10T08:28:43.703Z,53.14
2023-05-10T08:31:10.246Z,51.42
2023-05-10T08:33:36.748Z,49.40
2023-05-10T08:36:03.251Z,47.38
2023-05-10T08:38:29.746Z,44.48
2023-05-10T08:40:56.499Z,43.32
2023-05-10T08:43:23.734Z,43.74
2023-05-10T08:45:51.326Z,43.14
2023-05-10T08:48:18.185Z,43.53
2023-05-10T08:50:45.957Z,42.20
2023-05-10T08:53:14.101Z,40.09
2023-05-10T08:55:41.231Z,43.54
2023-05-10T08:58:07.989Z,39.89
2023-05-10T09:00:34.884Z,40.73
2023-05-10T09:03:02.362Z,38.47
2023-05-10T09:05:29.161Z,37.55
2023-05-10T09:07:55.743Z,38.19
2023-05-10T09:10:23.870Z,40.16
2023-05-10T09:12:50.737Z,42.37
2023-05-10T09:15:17.695Z,41.27
2023-05-10T09:17:45.026Z,40.70
2023-05-10T09:20:11.583Z,41.01
2023-05-10T09:22:38.127Z,42.16
2023-05-10T09:25:16.386Z,43.09
2023-05-10T09:27:47.866Z,41.84
2023-05-10T09:30:18.905Z,41.58
2023-05-10T09:32:47.079Z,43.58
2023-05-10T09:35:19.038Z,42.84
2023-05-10T09:37:47.364Z,43.84
2023-05-10T09:40:15.910Z,43.46
2023-05-10T09:42:44.050Z,42.84
2023-05-10T09:45:10.836Z,42.24
2023-05-10T09:47:37.493Z,43.68
2023-05-10T09:50:06.928Z,43.20
2023-05-10T09:52:55.847Z,44.01
2023-05-10T09:55:24.867Z,42.03
2023-05-10T09:58:01.549Z,41.95
2023-05-10T10:00:28.507Z,43.46
2023-05-10T10:02:57.355Z,43.14
2023-05-10T10:05:36.658Z,44.56
2023-05-10T10:08:05.211Z,45.31
2023-05-10T10:10:33.730Z,45.75
2023-05-10T10:13:00.874Z,46.06
2023-05-10T10:15:29.972Z,46.15
2023-05-10T10:17:56.620Z,45.01
2023-05-10T10:20:23.672Z,46.24
2023-05-10T10:22:50.310Z,45.58
2023-05-10T10:25:18.536Z,46.71
2023-05-10T10:27:54.211Z,46.09
2023-05-10T10:30:41.840Z,45.62
2023-05-10T10:33:33.185Z,47.33
2023-05-10T10:36:01.208Z,47.64
2023-05-10T10:38:37.765Z,50.74
2023-05-10T10:41:11.171Z,49.83
2023-05-10T10:43:37.680Z,49.04
2023-05-10T10:46:18.306Z,47.10
2023-05-10T10:48:53.155Z,49.00
2023-05-10T10:51:19.917Z,48.45
2023-05-10T10:53:48.606Z,48.62
2023-05-10T10:56:15.202Z,48.24
2023-05-10T10:58:42.609Z,48.24
2023-05-10T11:01:19.603Z,48.74
2023-05-10T11:04:01.492Z,48.22
2023-05-10T11:06:35.655Z,48.95
2023-05-10T11:09:10.585Z,48.38
2023-05-10T11:11:53.361Z,50.32
2023-05-10T11:14:23.199Z,49.95
2023-05-10T11:16:49.761Z,50.20
2023-05-10T11:19:17.318Z,50.25
2023-05-10T11:21:52.198Z,50.93
2023-05-10T11:24:22.727Z,49.93
2023-05-10T11:26:52.527Z,50.24
2023-05-10T11:29:19.065Z,50.42
2023-05-10T11:31:46.741Z,48.80
2023-05-10T11:34:24.350Z,46.89
2023-05-10T11:36:55.807Z,48.59
2023-05-10T11:39:22.644Z,47.11
2023-05-10T11:41:50.370Z,47.20
2023-05-10T11:44:17.015Z,47.35
2023-05-10T11:46:43.560Z,46.82
2023-05-10T11:49:13.098Z,45.70
2023-05-10T11:51:39.901Z,44.53
2023-05-10T11:54:10.899Z,44.88
2023-05-10T11:56:41.820Z,43.70
2023-05-10T11:59:11.352Z,43.10
2023-05-10T12:01:38.007Z,43.67
2023-05-10T12:04:04.656Z,44.60
2023-05-10T12:06:33.466Z,43.96
2023-05-10T12:09:00.722Z,44.88
2023-05-10T12:11:28.872Z,45.26
2023-05-10T12:13:56.269Z,46.09
2023-05-10T12:16:26.548Z,47.08
2023-05-10T12:18:57.588Z,47.01
2023-05-10T12:21:24.336Z,47.32
2023-05-10T12:23:52.645Z,46.31
2023-05-10T12:26:19.529Z,46.69
2023-05-10T12:28:46.055Z,45.62
2023-05-10T12:31:12.710Z,44.89
2023-05-10T12:33:40.652Z,44.82
2023-05-10T12:36:07.313Z,44.74
2023-05-10T12:38:36.029Z,44.38
2023-05-10T12:41:04.292Z,44.19
2023-05-10T12:43:31.213Z,42.60
2023-05-10T12:45:57.890Z,43.09
2023-05-10T12:48:25.517Z,42.72
2023-05-10T12:50:52.108Z,43.62
2023-05-10T12:53:18.654Z,43.51
2023-05-10T12:55:45.390Z,43.44
2023-05-10T12:58:15.789Z,44.57
2023-05-10T13:00:47.734Z,45.52
2023-05-10T13:03:14.422Z,44.08
2023-05-10T13:05:40.951Z,43.68
2023-05-10T13:08:07.466Z,43.34
2023-05-10T13:10:34.003Z,45.00
2023-05-10T13:13:00.480Z,44.53
2023-05-10T13:15:28.983Z,44.39
2023-05-10T13:17:55.850Z,45.62
2023-05-10T13:20:22.657Z,44.51
2023-05-10T13:22:50.586Z,44.17
2023-05-10T13:25:18.336Z,44.97
2023-05-10T13:27:44.867Z,45.45
2023-05-10T13:30:11.767Z,47.48
2023-05-10T13:32:38.613Z,47.95
2023-05-10T13:35:06.043Z,48.57
2023-05-10T13:37:33.101Z,48.20
2023-05-10T13:40:00.037Z,49.67
2023-05-10T13:42:26.583Z,48.50
2023-05-10T13:44:53.091Z,47.60
2023-05-10T13:47:19.575Z,47.14
2023-05-10T13:49:46.077Z,45.00
2023-05-10T13:52:12.575Z,46.34
2023-05-10T13:54:39.092Z,44.11
2023-05-10T13:57:06.184Z,45.57
2023-05-10T13:59:33.070Z,43.60
2023-05-10T14:02:00.073Z,42.98
2023-05-10T14:04:26.613Z,42.10
2023-05-10T14:06:53.214Z,42.11
2023-05-10T14:09:20.057Z,42.28
2023-05-10T14:11:46.857Z,41.65
2023-05-10T14:14:13.761Z,41.43
2023-05-10T14:16:44.824Z,41.02
2023-05-10T14:19:11.806Z,41.40
2023-05-10T14:21:38.601Z,41.56
2023-05-10T14:24:05.389Z,42.07
2023-05-10T14:26:31.889Z,43.17
2023-05-10T14:28:58.465Z,44.87
2023-05-10T14:31:25.225Z,45.04
2023-05-10T14:33:51.731Z,45.84
2023-05-10T14:36:18.920Z,45.15
2023-05-10T14:38:48.393Z,45.45
2023-05-10T14:41:16.437Z,45.76
2023-05-10T14:43:43.029Z,44.94
2023-05-10T14:46:09.856Z,44.94
2023-05-10T14:48:36.496Z,44.43
2023-05-10T14:51:03.001Z,45.24
2023-05-10T14:53:29.513Z,45.34
2023-05-10T14:55:56.016Z,47.15
2023-05-10T14:58:22.656Z,47.88
2023-05-10T15:00:49.140Z,46.26
2023-05-10T15:03:16.042Z,47.15
2023-05-10T15:05:43.585Z,46.99
2023-05-10T15:08:10.369Z,47.82
2023-05-10T15:10:37.026Z,47.82
2023-05-10T15:13:04.740Z,46.31
2023-05-10T15:15:35.942Z,46.90
2023-05-10T15:18:02.614Z,46.44
2023-05-10T15:20:32.303Z,46.60
2023-05-10T15:22:58.779Z,47.14
2023-05-10T15:25:25.276Z,50.08
2023-05-10T15:27:51.780Z,49.64
2023-05-10T15:30:18.246Z,49.02
2023-05-10T15:32:44.746Z,47.79
2023-05-10T15:35:11.939Z,45.60
2023-05-10T15:37:38.958Z,44.28
2023-05-10T15:40:06.209Z,44.17
2023-05-10T15:42:32.821Z,44.70
2023-05-10T15:44:59.540Z,43.41
2023-05-10T15:47:26.971Z,43.63
2023-05-10T15:49:53.559Z,44.35
2023-05-10T15:52:22.893Z,44.99
2023-05-10T15:54:49.996Z,46.76
2023-05-10T15:57:16.800Z,45.74
2023-05-10T15:59:43.329Z,45.62
2023-05-10T16:02:10.169Z,45.86
2023-05-10T16:04:37.190Z,46.71
2023-05-10T16:07:03.788Z,45.90
2023-05-10T16:09:31.092Z,46.27
2023-05-10T16:11:57.721Z,45.51
2023-05-10T16:14:26.871Z,46.16
2023-05-10T16:16:53.410Z,45.34
2023-05-10T16:19:20.066Z,46.35
2023-05-10T16:21:47.234Z,46.32
2023-05-10T16:24:13.696Z,46.01
2023-05-10T16:26:40.217Z,46.28
2023-05-10T16:29:08.170Z,46.88
2023-05-10T16:31:34.966Z,47.33
2023-05-10T16:34:06.216Z,48.82
2023-05-10T16:36:33.897Z,49.16
2023-05-10T16:39:00.588Z,48.78
2023-05-10T16:41:27.084Z,48.79
2023-05-10T16:43:54.147Z,49.27
2023-05-10T16:46:20.716Z,49.56
2023-05-10T16:48:48.312Z,49.46
2023-05-10T16:51:14.799Z,48.80
2023-05-10T16:53:41.306Z,48.29
2023-05-10T16:56:07.792Z,48.68
2023-05-10T16:58:35.709Z,49.32
2023-05-10T17:01:02.287Z,49.12
2023-05-10T17:03:28.959Z,49.88
2023-05-10T17:05:57.461Z,48.51
2023-05-10T17:08:24.046Z,49.42
2023-05-10T17:10:50.535Z,49.07
2023-05-10T17:13:17.290Z,48.94
2023-05-10T17:15:45.716Z,49.34
2023-05-10T17:18:12.320Z,49.93
2023-05-10T17:20:38.890Z,49.65
2023-05-10T17:23:05.401Z,50.01
2023-05-10T17:25:31.878Z,50.67
2023-05-10T17:27:58.732Z,49.83
2023-05-10T17:30:25.220Z,49.05
2023-05-10T17:32:52.479Z,48.33
2023-05-10T17:35:19.127Z,48.37
2023-05-10T17:37:45.692Z,48.52
2023-05-10T17:40:12.560Z,49.44
2023-05-10T17:42:39.076Z,49.87
2023-05-10T17:45:06.060Z,49.89
2023-05-10T17:47:32.716Z,49.23
2023-05-10T17:49:59.175Z,50.23
2023-05-10T17:52:25.655Z,49.37
2023-05-10T17:54:55.208Z,49.26
2023-05-10T17:57:22.810Z,49.57
2023-05-10T17:59:49.292Z,48.40
2023-05-10T18:02:15.794Z,48.61
2023-05-10T18:04:43.049Z,48.88
2023-05-10T18:07:09.878Z,48.16
2023-05-10T18:09:36.415Z,49.28
2023-05-10T18:12:03.162Z,50.08
2023-05-10T18:14:40.067Z,52.40
2023-05-10T18:17:08.347Z,54.16
2023-05-10T18:19:35.020Z,54.73
2023-05-10T18:22:01.625Z,54.80
2023-05-10T18:24:38.457Z,54.61
2023-05-10T18:27:09.420Z,53.43
2023-05-10T18:29:36.265Z,54.22
2023-05-10T18:32:03.278Z,54.70
2023-05-10T18:34:29.886Z,54.34
2023-05-10T18:36:56.528Z,55.50
2023-05-10T18:39:23.523Z,54.64
2023-05-10T18:41:50.101Z,54.81
2023-05-10T18:44:16.784Z,55.26
2023-05-10T18:46:43.359Z,54.95
2023-05-10T18:49:09.965Z,54.69
2023-05-10T18:51:36.458Z,55.08
2023-05-10T18:54:02.953Z,55.10
2023-05-10T18:56:29.496Z,55.96
2023-05-10T18:58:56.003Z,56.41
2023-05-10T19:01:22.523Z,57.11
2023-05-10T19:03:49.157Z,57.11
2023-05-10T19:06:15.660Z,56.14
2023-05-10T19:08:42.272Z,57.28
2023-05-10T19:11:08.857Z,57.83
2023-05-10T19:13:35.413Z,58.17
2023-05-10T19:16:09.987Z,58.20
2023-05-10T19:18:36.603Z,58.38
2023-05-10T19:21:03.280Z,58.25
2023-05-10T19:23:31.869Z,58.25
2023-05-10T19:25:58.512Z,59.17
2023-05-10T19:28:25.062Z,59.80
2023-05-10T19:30:51.551Z,59.77
2023-05-10T19:33:18.413Z,59.85
2023-05-10T19:35:45.244Z,60.45
2023-05-10T19:38:12.069Z,61.64
2023-05-10T19:40:38.655Z,60.32
2023-05-10T19:43:05.507Z,60.69
2023-05-10T19:45:34.830Z,61.23
2023-05-10T19:48:01.429Z,61.34
2023-05-10T19:50:27.980Z,61.75
2023-05-10T19:52:54.546Z,61.08
2023-05-10T19:55:31.201Z,61.59
2023-05-10T19:57:58.718Z,61.90
2023-05-10T20:00:25.409Z,62.02
2023-05-10T20:02:52.252Z,62.01
2023-05-10T20:05:19.220Z,62.02
2023-05-10T20:07:45.802Z,62.03
2023-05-10T20:10:13.708Z,62.04
2023-05-10T20:12:40.356Z,62.06
2023-05-10T20:15:07.642Z,63.10
2023-05-10T20:17:35.370Z,63.28
2023-05-10T20:20:02.359Z,63.30
2023-05-10T20:22:28.868Z,62.35
2023-05-10T20:24:56.226Z,61.96
2023-05-10T20:27:23.238Z,62.67
2023-05-10T20:29:49.814Z,62.51
2023-05-10T20:32:16.349Z,63.10
2023-05-10T20:34:43.175Z,65.01
2023-05-10T20:37:09.752Z,65.29
2023-05-10T20:39:36.221Z,65.02
2023-05-10T20:42:03.380Z,64.55
2023-05-10T20:44:29.857Z,63.70
2023-05-10T20:46:56.357Z,63.51
2023-05-10T20:49:22.953Z,62.57
2023-05-10T20:51:49.471Z,62.19
2023-05-10T20:54:16.680Z,61.38
2023-05-10T20:56:43.291Z,61.84
2023-05-10T20:59:10.904Z,61.96
2023-05-10T21:01:38.507Z,62.07
2023-05-10T21:04:05.117Z,62.08
2023-05-10T21:06:31.606Z,63.58
2023-05-10T21:08:59.024Z,63.54
2023-05-10T21:11:25.988Z,62.87
2023-05-10T21:13:52.499Z,64.26
2023-05-10T21:16:20.024Z,63.90
2023-05-10T21:18:46.577Z,63.65
2023-05-10T21:21:13.147Z,63.44
2023-05-10T21:23:39.618Z,64.66
2023-05-10T21:26:06.199Z,63.70
2023-05-10T21:28:32.790Z,63.57
2023-05-10T21:30:59.260Z,64.09
2023-05-10T21:33:25.792Z,64.51
2023-05-10T21:35:52.663Z,63.81
2023-05-10T21:38:19.199Z,63.23
2023-05-10T21:40:45.765Z,64.00
2023-05-10T21:43:12.260Z,64.54
2023-05-10T21:45:38.826Z,64.15
2023-05-10T21:48:05.355Z,64.53
2023-05-10T21:50:31.980Z,64.56
2023-05-10T21:52:58.527Z,64.32
2023-05-10T21:55:25.010Z,65.21
2023-05-10T21:57:51.491Z,65.27
2023-05-10T22:00:18.331Z,64.67
2023-05-10T22:02:45.615Z,64.49
2023-05-10T22:05:12.466Z,64.49
2023-05-10T22:07:39.011Z,63.71
2023-05-10T22:10:06.039Z,64.06
2023-05-10T22:12:32.804Z,63.87
2023-05-10T22:15:09.344Z,63.30
2023-05-10T22:17:38.561Z,63.51
2023-05-10T22:20:07.234Z,63.53
2023-05-10T22:22:33.803Z,62.94
2023-05-10T22:25:00.356Z,62.13
2023-05-10T22:27:26.912Z,62.72
2023-05-10T22:29:53.377Z,62.78
2023-05-10T22:32:19.850Z,62.00
2023-05-10T22:34:46.355Z,62.95
2023-05-10T22:37:12.820Z,62.66
2023-05-10T22:39:39.279Z,62.31
2023-05-10T22:42:05.757Z,62.37
2023-05-10T22:44:32.272Z,62.73
2023-05-10T22:46:58.816Z,63.31
2023-05-10T22:49:25.471Z,62.31
2023-05-10T22:51:52.390Z,62.39
2023-05-10T22:54:19.049Z,62.17
2023-05-10T22:56:45.626Z,62.10
2023-05-10T22:59:12.161Z,62.81
2023-05-10T23:01:38.775Z,62.61
2023-05-10T23:04:05.335Z,62.55
2023-05-10T23:06:31.888Z,62.88
2023-05-10T23:08:58.503Z,63.46
2023-05-10T23:11:25.058Z,64.39
2023-05-10T23:13:51.523Z,63.54
2023-05-10T23:16:18.699Z,63.22
2023-05-10T23:18:45.268Z,64.55
2023-05-10T23:21:11.768Z,65.04
2023-05-10T23:23:38.577Z,65.89
2023-05-10T23:26:05.248Z,66.05
2023-05-10T23:28:32.404Z,66.47
2023-05-10T23:30:59.070Z,66.89
2023-05-10T23:33:28.259Z,66.39
2023-05-10T23:35:54.736Z,66.96
2023-05-10T23:38:21.639Z,66.41
2023-05-10T23:40:49.236Z,65.62
2023-05-10T23:43:16.715Z,65.45
2023-05-10T23:45:43.854Z,65.92
2023-05-10T23:48:10.464Z,65.69
2023-05-10T23:50:36.942Z,65.44
2023-05-10T23:53:03.978Z,66.09
2023-05-10T23:55:30.527Z,66.20
2023-05-10T23:57:57.036Z,64.78
